EZS241 LFBO-LFSB
Flight info
| Callsign | EZS241 |
|---|---|
| Flight time | N/A |
| Altitude | 34000 |
| Route | MEN DCT NINUN DCT LATAM DCT ETREK/N0451F300 DCT LTP DCT SOPLO DCT OMASI DCT KINNI DCT LAMUR DCT KORED N871 KONOL/N0377F180 Z59 LUMEL |
| Aircraft | A20N/M-SDE2E3FGHIRWXY/LB1 |
Departure
| Time | 2026-04-29 15:11 |
|---|---|
| Airport | Toulouse-Blagnac Airport (LFBO) |
Arrival
| Time | N/A |
|---|---|
| Airport | EuroAirport Basel–Mulhouse–Freiburg (LFSB) |
| Time | Latitude | Longitude | Altitude | Speed | Heading |
|---|---|---|---|---|---|
| 2026-04-29 14:57 | 43.63001 | 1.37270 | 502 ft | 0 kts | 49° |
| 2026-04-29 15:01 | 43.63000 | 1.37268 | 502 ft | 1 kts | 49° |
| 2026-04-29 15:01 | 43.62992 | 1.37256 | 502 ft | 2 kts | 49° |
| 2026-04-29 15:02 | 43.62983 | 1.37241 | 502 ft | 2 kts | 52° |
| 2026-04-29 15:02 | 43.62975 | 1.37224 | 502 ft | 2 kts | 84° |
| 2026-04-29 15:02 | 43.62976 | 1.37203 | 502 ft | 2 kts | 84° |
| 2026-04-29 15:02 | 43.62967 | 1.37192 | 502 ft | 2 kts | 352° |
| 2026-04-29 15:03 | 43.62954 | 1.37198 | 502 ft | 2 kts | 324° |
| 2026-04-29 15:03 | 43.62952 | 1.37199 | 502 ft | 0 kts | 323° |
| 2026-04-29 15:05 | 43.62963 | 1.37188 | 502 ft | 4 kts | 323° |
| 2026-04-29 15:06 | 43.62992 | 1.37157 | 502 ft | 7 kts | 320° |
| 2026-04-29 15:06 | 43.63024 | 1.37091 | 501 ft | 10 kts | 286° |
| 2026-04-29 15:06 | 43.63062 | 1.36957 | 501 ft | 20 kts | 301° |
| 2026-04-29 15:06 | 43.63100 | 1.36785 | 501 ft | 20 kts | 255° |
| 2026-04-29 15:07 | 43.63147 | 1.36686 | 501 ft | 13 kts | 327° |
| 2026-04-29 15:07 | 43.63239 | 1.36590 | 500 ft | 21 kts | 320° |
| 2026-04-29 15:07 | 43.63383 | 1.36443 | 500 ft | 30 kts | 325° |
| 2026-04-29 15:07 | 43.63568 | 1.36252 | 499 ft | 37 kts | 322° |
| 2026-04-29 15:08 | 43.63784 | 1.36022 | 494 ft | 41 kts | 323° |
| 2026-04-29 15:08 | 43.64017 | 1.35783 | 491 ft | 42 kts | 322° |
| 2026-04-29 15:08 | 43.64254 | 1.35538 | 498 ft | 43 kts | 322° |
| 2026-04-29 15:08 | 43.64449 | 1.35306 | 498 ft | 21 kts | 292° |
| 2026-04-29 15:09 | 43.64502 | 1.35101 | 493 ft | 24 kts | 287° |
| 2026-04-29 15:09 | 43.64532 | 1.34870 | 497 ft | 25 kts | 248° |
| 2026-04-29 15:09 | 43.64428 | 1.34672 | 497 ft | 26 kts | 223° |
| 2026-04-29 15:09 | 43.64294 | 1.34718 | 494 ft | 20 kts | 147° |
| 2026-04-29 15:10 | 43.64172 | 1.34848 | 499 ft | 39 kts | 143° |
| 2026-04-29 15:10 | 43.63771 | 1.35266 | 495 ft | 103 kts | 143° |
| 2026-04-29 15:10 | 43.63063 | 1.36001 | 501 ft | 150 kts | 142° |
| 2026-04-29 15:10 | 43.62170 | 1.36913 | 852 ft | 163 kts | 140° |
| 2026-04-29 15:11 | 43.61457 | 1.38076 | 1410 ft | 168 kts | 110° |
| 2026-04-29 15:11 | 43.61425 | 1.39761 | 1853 ft | 192 kts | 76° |
| 2026-04-29 15:11 | 43.62232 | 1.41338 | 2292 ft | 217 kts | 47° |
| 2026-04-29 15:11 | 43.63476 | 1.42707 | 2692 ft | 237 kts | 40° |
| 2026-04-29 15:12 | 43.64836 | 1.44067 | 3406 ft | 241 kts | 39° |
| 2026-04-29 15:12 | 43.66241 | 1.45488 | 3845 ft | 262 kts | 39° |
| 2026-04-29 15:12 | 43.67726 | 1.47028 | 4590 ft | 271 kts | 40° |
| 2026-04-29 15:12 | 43.69078 | 1.48853 | 5491 ft | 275 kts | 52° |
| 2026-04-29 15:13 | 43.70171 | 1.51092 | 6322 ft | 286 kts | 61° |
| 2026-04-29 15:13 | 43.71186 | 1.53483 | 7265 ft | 289 kts | 60° |
| 2026-04-29 15:13 | 43.72227 | 1.55893 | 8232 ft | 294 kts | 60° |
| 2026-04-29 15:13 | 43.73286 | 1.58341 | 9144 ft | 300 kts | 60° |
| 2026-04-29 15:14 | 43.74367 | 1.60831 | 10057 ft | 304 kts | 60° |
| 2026-04-29 15:14 | 43.75487 | 1.63414 | 10564 ft | 324 kts | 60° |
| 2026-04-29 15:14 | 43.76689 | 1.66190 | 10885 ft | 347 kts | 60° |
| 2026-04-29 15:14 | 43.77963 | 1.69122 | 11418 ft | 361 kts | 60° |
| 2026-04-29 15:15 | 43.79240 | 1.72071 | 12266 ft | 364 kts | 60° |
| 2026-04-29 15:15 | 43.80544 | 1.75092 | 13146 ft | 368 kts | 60° |
| 2026-04-29 15:15 | 43.81866 | 1.78158 | 13902 ft | 373 kts | 60° |
| 2026-04-29 15:15 | 43.83202 | 1.81259 | 14654 ft | 376 kts | 60° |
| 2026-04-29 15:16 | 43.84548 | 1.84381 | 15417 ft | 379 kts | 60° |
| 2026-04-29 15:16 | 43.85904 | 1.87536 | 16145 ft | 383 kts | 60° |
| 2026-04-29 15:16 | 43.87272 | 1.90719 | 16895 ft | 386 kts | 60° |
| 2026-04-29 15:16 | 43.88653 | 1.93940 | 17629 ft | 389 kts | 61° |
| 2026-04-29 15:17 | 43.90043 | 1.97185 | 18325 ft | 393 kts | 61° |
| 2026-04-29 15:17 | 43.91445 | 2.00459 | 18923 ft | 397 kts | 60° |
| 2026-04-29 15:17 | 43.93045 | 2.03612 | 19542 ft | 402 kts | 52° |
| 2026-04-29 15:17 | 43.94870 | 2.06572 | 20128 ft | 406 kts | 51° |
| 2026-04-29 15:18 | 43.96718 | 2.09571 | 20722 ft | 410 kts | 51° |
| 2026-04-29 15:18 | 43.98572 | 2.12595 | 21320 ft | 413 kts | 51° |
| 2026-04-29 15:18 | 44.00443 | 2.15653 | 21881 ft | 417 kts | 51° |
| 2026-04-29 15:18 | 44.02328 | 2.18740 | 22514 ft | 419 kts | 51° |
| 2026-04-29 15:19 | 44.04201 | 2.21812 | 23071 ft | 423 kts | 51° |
| 2026-04-29 15:19 | 44.06115 | 2.24952 | 23622 ft | 427 kts | 51° |
| 2026-04-29 15:19 | 44.08039 | 2.28112 | 24106 ft | 430 kts | 51° |
| 2026-04-29 15:19 | 44.09976 | 2.31298 | 24573 ft | 433 kts | 51° |
| 2026-04-29 15:20 | 44.11928 | 2.34508 | 24987 ft | 437 kts | 51° |
| 2026-04-29 15:20 | 44.13896 | 2.37751 | 25459 ft | 439 kts | 51° |
| 2026-04-29 15:20 | 44.15878 | 2.41020 | 25855 ft | 444 kts | 51° |
| 2026-04-29 15:20 | 44.17873 | 2.44315 | 26329 ft | 445 kts | 51° |
| 2026-04-29 15:21 | 44.19878 | 2.47630 | 26727 ft | 449 kts | 51° |
| 2026-04-29 15:21 | 44.21900 | 2.50981 | 27079 ft | 453 kts | 51° |
| 2026-04-29 15:21 | 44.23931 | 2.54350 | 27535 ft | 455 kts | 51° |
| 2026-04-29 15:21 | 44.25956 | 2.57711 | 27861 ft | 459 kts | 51° |
| 2026-04-29 15:22 | 44.28022 | 2.61143 | 28221 ft | 462 kts | 51° |
| 2026-04-29 15:22 | 44.30093 | 2.64588 | 28552 ft | 466 kts | 51° |
| 2026-04-29 15:22 | 44.32181 | 2.68065 | 28964 ft | 468 kts | 51° |
| 2026-04-29 15:22 | 44.34277 | 2.71561 | 29271 ft | 471 kts | 51° |
| 2026-04-29 15:23 | 44.36380 | 2.75073 | 29663 ft | 472 kts | 50° |
| 2026-04-29 15:23 | 44.38491 | 2.78604 | 29973 ft | 475 kts | 50° |
| 2026-04-29 15:23 | 44.40617 | 2.82162 | 30287 ft | 477 kts | 50° |
| 2026-04-29 15:23 | 44.42744 | 2.85729 | 30630 ft | 478 kts | 50° |
| 2026-04-29 15:24 | 44.44876 | 2.89308 | 30918 ft | 481 kts | 50° |
| 2026-04-29 15:24 | 44.47017 | 2.92903 | 31255 ft | 481 kts | 50° |
| 2026-04-29 15:24 | 44.49162 | 2.96511 | 31671 ft | 480 kts | 50° |
| 2026-04-29 15:24 | 44.51296 | 3.00106 | 32084 ft | 479 kts | 50° |
| 2026-04-29 15:25 | 44.53401 | 3.03655 | 32513 ft | 478 kts | 50° |
| 2026-04-29 15:25 | 44.55522 | 3.07237 | 32936 ft | 476 kts | 50° |
| 2026-04-29 15:25 | 44.57634 | 3.10808 | 33326 ft | 475 kts | 50° |
| 2026-04-29 15:25 | 44.59731 | 3.14388 | 33683 ft | 474 kts | 52° |
| 2026-04-29 15:26 | 44.61610 | 3.18184 | 33947 ft | 473 kts | 59° |
| 2026-04-29 15:26 | 44.64835 | 3.26212 | 34004 ft | 471 kts | 61° |
| 2026-04-29 15:27 | 44.68054 | 3.34222 | 34007 ft | 471 kts | 60° |
| 2026-04-29 15:27 | 44.71264 | 3.42241 | 34009 ft | 471 kts | 60° |
| 2026-04-29 15:28 | 44.74465 | 3.50272 | 34010 ft | 471 kts | 60° |
| 2026-04-29 15:28 | 44.77660 | 3.58311 | 34007 ft | 470 kts | 60° |
| 2026-04-29 15:29 | 44.80823 | 3.66295 | 34006 ft | 469 kts | 60° |
| 2026-04-29 15:30 | 44.87173 | 3.82389 | 34011 ft | 469 kts | 60° |
| 2026-04-29 15:30 | 44.90333 | 3.90433 | 34010 ft | 469 kts | 60° |
| 2026-04-29 15:31 | 44.93495 | 3.98503 | 34010 ft | 469 kts | 60° |
| 2026-04-29 15:31 | 44.96645 | 4.06568 | 34010 ft | 469 kts | 60° |
| 2026-04-29 15:32 | 44.99768 | 4.14586 | 34010 ft | 469 kts | 60° |
| 2026-04-29 15:32 | 45.02911 | 4.22679 | 34003 ft | 469 kts | 60° |
| 2026-04-29 15:33 | 45.06043 | 4.30765 | 34010 ft | 469 kts | 60° |
| 2026-04-29 15:33 | 45.09167 | 4.38858 | 34006 ft | 469 kts | 60° |
| 2026-04-29 15:34 | 45.12287 | 4.46965 | 34006 ft | 469 kts | 60° |
| 2026-04-29 15:34 | 45.15404 | 4.55086 | 34003 ft | 469 kts | 60° |
| 2026-04-29 15:35 | 45.18514 | 4.63213 | 34006 ft | 469 kts | 60° |
| 2026-04-29 15:35 | 45.21618 | 4.71348 | 34006 ft | 469 kts | 60° |
| 2026-04-29 15:36 | 45.24720 | 4.79501 | 34007 ft | 470 kts | 60° |
| 2026-04-29 15:36 | 45.27817 | 4.87667 | 34006 ft | 470 kts | 60° |
| 2026-04-29 15:37 | 45.30886 | 4.95783 | 34009 ft | 470 kts | 60° |
| 2026-04-29 15:37 | 45.33971 | 5.03965 | 34015 ft | 469 kts | 60° |